createdAt,value
2019-06-26T00:01:03.201Z,26.69
2019-06-26T00:01:29.980Z,26.66
2019-06-26T00:02:29.998Z,26.65
2019-06-26T00:03:29.939Z,26.63
2019-06-26T00:05:03.159Z,26.62
2019-06-26T00:05:29.941Z,26.65
2019-06-26T00:06:29.930Z,26.61
2019-06-26T00:07:29.919Z,26.71
2019-06-26T00:08:29.912Z,26.61
2019-06-26T00:09:29.955Z,26.54
2019-06-26T00:10:29.867Z,26.50
2019-06-26T00:11:29.866Z,26.50
2019-06-26T00:12:29.850Z,26.48
2019-06-26T00:13:29.839Z,26.47
2019-06-26T00:14:29.845Z,26.54
2019-06-26T00:15:29.820Z,26.37
2019-06-26T00:16:29.810Z,26.37
2019-06-26T00:17:29.807Z,26.39
2019-06-26T00:18:29.786Z,26.36
2019-06-26T00:19:29.782Z,26.41
2019-06-26T00:20:29.767Z,26.40
2019-06-26T00:21:29.755Z,26.47
2019-06-26T00:22:29.745Z,26.32
2019-06-26T00:23:29.733Z,26.29
2019-06-26T00:24:29.723Z,26.41
2019-06-26T00:25:29.726Z,26.25
2019-06-26T00:26:29.724Z,26.31
2019-06-26T00:27:29.746Z,26.31
2019-06-26T00:28:29.693Z,26.37
2019-06-26T00:29:29.671Z,26.25
2019-06-26T00:30:29.669Z,26.21
2019-06-26T00:31:29.657Z,26.24
2019-06-26T00:32:29.643Z,26.21
2019-06-26T00:33:29.635Z,26.13
2019-06-26T00:34:29.620Z,26.18
2019-06-26T00:35:29.639Z,26.19
2019-06-26T00:36:29.599Z,26.12
2019-06-26T00:37:29.589Z,26.06
2019-06-26T00:38:29.583Z,26.03
2019-06-26T00:39:29.573Z,26.00
2019-06-26T00:40:29.560Z,26.02
2019-06-26T00:41:29.548Z,25.99
2019-06-26T00:42:29.542Z,26.09
2019-06-26T00:43:42.055Z,25.95
2019-06-26T00:44:29.522Z,25.98
2019-06-26T00:45:29.521Z,25.94
2019-06-26T00:46:29.506Z,25.88
2019-06-26T00:47:29.488Z,25.99
2019-06-26T00:48:29.473Z,25.86
2019-06-26T00:49:29.462Z,25.87
2019-06-26T00:50:29.454Z,25.78
2019-06-26T00:51:29.445Z,25.84
2019-06-26T00:52:29.430Z,25.83
2019-06-26T00:53:29.423Z,25.76
2019-06-26T00:54:29.416Z,25.78
2019-06-26T00:55:29.398Z,25.72
2019-06-26T00:56:29.390Z,25.72
2019-06-26T00:57:29.398Z,25.73
2019-06-26T00:58:29.367Z,25.66
2019-06-26T00:59:29.356Z,25.65
2019-06-26T01:00:29.346Z,25.53
2019-06-26T01:01:29.336Z,25.48
2019-06-26T01:02:29.334Z,25.48
2019-06-26T01:03:29.313Z,25.61
2019-06-26T01:04:29.303Z,25.48
2019-06-26T01:05:29.294Z,25.54
2019-06-26T01:06:29.286Z,25.39
2019-06-26T01:07:29.271Z,25.44
2019-06-26T01:08:29.260Z,25.39
2019-06-26T01:09:29.252Z,25.38
2019-06-26T01:10:29.238Z,25.32
2019-06-26T01:11:29.232Z,25.18
2019-06-26T01:12:29.217Z,25.17
2019-06-26T01:13:29.209Z,25.17
2019-06-26T01:14:29.196Z,25.18
2019-06-26T01:15:29.234Z,25.20
2019-06-26T01:16:29.176Z,25.02
2019-06-26T01:17:29.168Z,25.01
2019-06-26T01:18:29.245Z,25.01
2019-06-26T01:19:29.140Z,24.99
2019-06-26T01:20:29.133Z,24.98
2019-06-26T01:21:29.118Z,25.14
2019-06-26T01:22:29.108Z,24.96
2019-06-26T01:23:29.098Z,24.96
2019-06-26T01:24:29.087Z,24.99
2019-06-26T01:25:29.076Z,24.96
2019-06-26T01:26:29.063Z,24.92
2019-06-26T01:27:29.051Z,24.88
2019-06-26T01:28:29.040Z,24.92
2019-06-26T01:29:32.469Z,24.83
2019-06-26T01:30:29.026Z,24.77
2019-06-26T01:31:29.010Z,24.77
2019-06-26T01:32:28.998Z,24.83
2019-06-26T01:33:28.991Z,24.70
2019-06-26T01:34:28.975Z,24.70
2019-06-26T01:35:28.967Z,24.83
2019-06-26T01:36:28.969Z,24.76
2019-06-26T01:37:28.943Z,24.83
2019-06-26T01:38:28.955Z,24.70
2019-06-26T01:39:28.917Z,24.74
2019-06-26T01:40:28.910Z,24.69
2019-06-26T01:41:28.900Z,24.69
2019-06-26T01:42:28.883Z,24.79
2019-06-26T01:43:28.873Z,24.73
2019-06-26T01:44:28.861Z,24.73
2019-06-26T01:45:28.851Z,24.69
2019-06-26T01:46:28.839Z,24.73
2019-06-26T01:47:28.829Z,24.68
2019-06-26T01:48:28.815Z,24.63
2019-06-26T01:49:28.804Z,24.64
2019-06-26T01:50:28.795Z,24.58
2019-06-26T01:51:28.780Z,24.54
2019-06-26T01:52:28.770Z,24.56
2019-06-26T01:53:28.759Z,24.53
2019-06-26T01:54:28.757Z,24.43
2019-06-26T01:55:28.736Z,24.45
2019-06-26T01:56:28.727Z,24.39
2019-06-26T01:57:28.714Z,24.38
2019-06-26T01:58:28.702Z,24.42
2019-06-26T01:59:28.690Z,24.42
2019-06-26T02:00:28.711Z,24.41
2019-06-26T02:01:28.669Z,24.41
2019-06-26T02:02:28.657Z,24.46
2019-06-26T02:03:28.646Z,24.33
2019-06-26T02:04:28.633Z,24.35
2019-06-26T02:05:28.625Z,24.26
2019-06-26T02:06:28.616Z,24.27
2019-06-26T02:07:28.604Z,24.28
2019-06-26T02:08:28.597Z,24.24
2019-06-26T02:09:28.589Z,24.23
2019-06-26T02:10:28.564Z,24.28
2019-06-26T02:11:28.555Z,24.32
2019-06-26T02:12:28.543Z,24.27
2019-06-26T02:13:28.529Z,24.17
2019-06-26T02:14:31.429Z,24.23
2019-06-26T02:15:28.506Z,24.26
2019-06-26T02:16:28.494Z,24.26
2019-06-26T02:17:28.485Z,24.31
2019-06-26T02:18:28.477Z,24.21
2019-06-26T02:19:28.460Z,24.23
2019-06-26T02:20:28.448Z,24.21
2019-06-26T02:21:28.440Z,24.20
2019-06-26T02:22:28.427Z,24.20
2019-06-26T02:23:28.415Z,24.16
2019-06-26T02:24:28.410Z,24.21
2019-06-26T02:25:28.393Z,24.16
2019-06-26T02:26:28.381Z,24.16
2019-06-26T02:27:28.369Z,24.14
2019-06-26T02:28:28.356Z,24.06
2019-06-26T02:29:28.344Z,24.01
2019-06-26T02:30:28.336Z,24.05
2019-06-26T02:31:28.322Z,24.02
2019-06-26T02:32:28.309Z,23.98
2019-06-26T02:33:28.298Z,23.99
2019-06-26T02:34:28.286Z,24.08
2019-06-26T02:35:28.280Z,23.99
2019-06-26T02:36:28.263Z,24.06
2019-06-26T02:37:28.257Z,24.06
2019-06-26T02:38:28.243Z,24.13
2019-06-26T02:39:28.233Z,24.05
2019-06-26T02:40:28.217Z,24.06
2019-06-26T02:41:28.211Z,24.06
2019-06-26T02:42:28.195Z,24.03
2019-06-26T02:43:28.186Z,24.03
2019-06-26T02:44:28.179Z,24.11
2019-06-26T02:45:28.164Z,24.09
2019-06-26T02:46:28.146Z,24.01
2019-06-26T02:47:28.135Z,24.03
2019-06-26T02:48:28.123Z,23.98
2019-06-26T02:49:28.112Z,23.98
2019-06-26T02:50:28.101Z,24.01
2019-06-26T02:51:28.092Z,23.98
2019-06-26T02:52:28.082Z,23.96
2019-06-26T02:53:28.065Z,23.99
2019-06-26T02:54:28.054Z,23.87
2019-06-26T02:55:28.041Z,24.01
2019-06-26T02:56:28.030Z,23.88
2019-06-26T02:57:28.062Z,23.96
2019-06-26T02:58:28.008Z,23.96
2019-06-26T02:59:27.996Z,23.96
2019-06-26T03:00:27.988Z,23.96
2019-06-26T03:01:27.975Z,23.96
2019-06-26T03:02:27.960Z,23.88
2019-06-26T03:03:27.949Z,23.87
2019-06-26T03:04:27.937Z,23.81
2019-06-26T03:05:27.926Z,23.76
2019-06-26T03:06:27.926Z,23.90
2019-06-26T03:07:27.904Z,23.86
2019-06-26T03:08:27.899Z,23.83
2019-06-26T03:09:27.877Z,23.80
2019-06-26T03:10:27.866Z,23.81
2019-06-26T03:11:27.854Z,23.88
2019-06-26T03:12:27.841Z,23.79
2019-06-26T03:13:27.830Z,23.76
2019-06-26T03:14:27.818Z,23.77
2019-06-26T03:15:27.807Z,23.77
2019-06-26T03:16:27.795Z,23.83
2019-06-26T03:17:27.786Z,23.76
2019-06-26T03:18:27.773Z,23.79
2019-06-26T03:19:27.762Z,23.79
2019-06-26T03:20:27.747Z,23.76
2019-06-26T03:21:27.739Z,23.81
2019-06-26T03:22:27.725Z,23.64
2019-06-26T03:23:27.712Z,23.66
2019-06-26T03:24:27.698Z,23.59
2019-06-26T03:25:27.695Z,23.64
2019-06-26T03:26:27.675Z,23.72
2019-06-26T03:27:27.663Z,23.69
2019-06-26T03:28:27.650Z,23.61
2019-06-26T03:29:27.641Z,23.61
2019-06-26T03:30:27.630Z,23.54
2019-06-26T03:31:27.619Z,23.62
2019-06-26T03:32:27.634Z,23.61
2019-06-26T03:33:27.593Z,23.56
2019-06-26T03:34:27.582Z,23.53
2019-06-26T03:35:27.566Z,23.59
2019-06-26T03:36:27.559Z,23.53
2019-06-26T03:37:27.546Z,23.54
2019-06-26T03:38:27.533Z,23.53
2019-06-26T03:39:27.520Z,23.49
2019-06-26T03:40:27.509Z,23.51
2019-06-26T03:41:27.500Z,23.46
2019-06-26T03:42:27.489Z,23.47
2019-06-26T03:43:27.471Z,23.44
2019-06-26T03:44:27.466Z,23.43
2019-06-26T03:45:27.450Z,23.46
2019-06-26T03:46:27.438Z,23.43
2019-06-26T03:47:27.425Z,23.39
2019-06-26T03:48:27.415Z,23.40
2019-06-26T03:49:27.401Z,23.43
2019-06-26T03:50:27.390Z,23.37
2019-06-26T03:51:27.389Z,23.39
2019-06-26T03:52:27.368Z,23.40
2019-06-26T03:53:27.353Z,23.34
2019-06-26T03:54:27.346Z,23.43
2019-06-26T03:55:27.328Z,23.47
2019-06-26T03:56:27.319Z,23.46
2019-06-26T03:57:27.305Z,23.47
2019-06-26T03:58:27.293Z,23.43
2019-06-26T03:59:27.281Z,23.35
2019-06-26T04:00:27.329Z,23.31
2019-06-26T04:01:27.260Z,23.37
2019-06-26T04:02:27.250Z,23.40
2019-06-26T04:03:27.235Z,23.40
2019-06-26T04:04:27.222Z,23.41
2019-06-26T04:05:27.213Z,23.51
2019-06-26T04:06:27.201Z,23.50
2019-06-26T04:07:27.187Z,23.58
2019-06-26T04:08:27.182Z,23.68
2019-06-26T04:09:27.166Z,23.69
2019-06-26T04:10:27.152Z,23.81
2019-06-26T04:11:27.140Z,23.81
2019-06-26T04:12:27.129Z,23.77
2019-06-26T04:13:27.116Z,23.86
2019-06-26T04:14:27.108Z,23.94
2019-06-26T04:15:40.807Z,23.88
2019-06-26T04:16:27.081Z,23.84
2019-06-26T04:17:27.074Z,23.77
2019-06-26T04:18:27.062Z,23.87
2019-06-26T04:19:27.048Z,23.98
2019-06-26T04:20:27.037Z,23.98
2019-06-26T04:21:27.024Z,23.95
2019-06-26T04:22:27.014Z,23.94
2019-06-26T04:23:27.006Z,23.84
2019-06-26T04:24:26.990Z,23.87
2019-06-26T04:25:26.977Z,23.98
2019-06-26T04:26:26.976Z,23.86
2019-06-26T04:27:26.955Z,23.86
2019-06-26T04:28:26.944Z,23.86
2019-06-26T04:29:26.937Z,23.76
2019-06-26T04:30:26.927Z,23.83
2019-06-26T04:31:26.912Z,23.77
2019-06-26T04:32:26.898Z,23.81
2019-06-26T04:33:26.889Z,23.88
2019-06-26T04:34:26.877Z,23.88
2019-06-26T04:35:26.864Z,23.94
2019-06-26T04:36:26.852Z,23.90
2019-06-26T04:37:26.844Z,23.87
2019-06-26T04:38:26.842Z,23.88
2019-06-26T04:39:26.837Z,24.05
2019-06-26T04:40:26.811Z,24.02
2019-06-26T04:41:26.798Z,24.01
2019-06-26T04:42:26.805Z,24.06
2019-06-26T04:43:26.813Z,24.05
2019-06-26T04:44:26.764Z,24.01
2019-06-26T04:45:26.753Z,24.02
2019-06-26T04:46:26.743Z,23.91
2019-06-26T04:47:26.734Z,23.95
2019-06-26T04:48:26.719Z,23.84
2019-06-26T04:49:26.709Z,23.99
2019-06-26T04:50:26.700Z,24.02
2019-06-26T04:51:26.687Z,24.06
2019-06-26T04:52:26.677Z,24.08
2019-06-26T04:53:26.866Z,24.17
2019-06-26T04:54:26.664Z,24.28
2019-06-26T04:55:26.670Z,24.38
2019-06-26T04:56:26.673Z,24.31
2019-06-26T04:57:26.682Z,24.45
2019-06-26T04:58:26.616Z,24.36
2019-06-26T04:59:26.605Z,24.41
2019-06-26T05:00:26.591Z,24.42
2019-06-26T05:01:26.583Z,24.54
2019-06-26T05:02:26.573Z,24.64
2019-06-26T05:03:26.564Z,24.80
2019-06-26T05:04:26.568Z,24.89
2019-06-26T05:05:39.161Z,24.99
2019-06-26T05:06:26.574Z,24.95
2019-06-26T05:07:26.566Z,25.07
2019-06-26T05:08:26.569Z,25.28
2019-06-26T05:09:26.526Z,25.47
2019-06-26T05:10:26.510Z,25.54
2019-06-26T05:11:26.508Z,25.76
2019-06-26T05:12:26.489Z,25.86
2019-06-26T05:13:26.495Z,26.08
2019-06-26T05:14:26.475Z,26.24
2019-06-26T05:15:26.589Z,26.37
2019-06-26T05:16:26.462Z,26.55
2019-06-26T05:17:26.456Z,26.78
2019-06-26T05:18:26.493Z,26.99
2019-06-26T05:19:26.450Z,27.05
2019-06-26T05:20:26.454Z,27.10
2019-06-26T05:21:26.491Z,27.14
2019-06-26T05:22:26.429Z,27.13
2019-06-26T05:23:26.419Z,27.20
2019-06-26T05:24:26.427Z,27.21
2019-06-26T05:25:26.464Z,27.15
2019-06-26T05:26:26.451Z,27.15
2019-06-26T05:27:26.426Z,27.18
2019-06-26T05:28:26.402Z,27.30
2019-06-26T05:29:26.418Z,27.45
2019-06-26T05:30:26.388Z,27.51
2019-06-26T05:31:26.400Z,27.52
2019-06-26T05:32:26.374Z,27.51
2019-06-26T05:33:26.376Z,27.74
2019-06-26T05:34:26.378Z,27.90
2019-06-26T05:35:26.366Z,28.14
2019-06-26T05:36:26.406Z,28.29
2019-06-26T05:37:26.378Z,28.41
2019-06-26T05:38:26.490Z,28.29
2019-06-26T05:39:26.384Z,28.13
2019-06-26T05:40:26.471Z,27.80
2019-06-26T05:41:26.365Z,27.81
2019-06-26T05:42:26.621Z,27.83
2019-06-26T05:43:26.339Z,27.66
2019-06-26T05:44:26.335Z,27.51
2019-06-26T05:45:26.396Z,27.71
2019-06-26T05:46:31.047Z,27.83
2019-06-26T05:47:26.322Z,27.96
2019-06-26T05:48:26.540Z,28.13
2019-06-26T05:49:26.386Z,28.29
2019-06-26T05:50:26.323Z,28.57
2019-06-26T05:51:26.360Z,28.73
2019-06-26T05:52:26.361Z,28.89
2019-06-26T05:53:26.306Z,28.73
2019-06-26T05:54:26.321Z,28.84
2019-06-26T05:55:26.376Z,28.88
2019-06-26T05:56:26.290Z,28.92
2019-06-26T05:57:26.297Z,28.89
2019-06-26T05:58:26.286Z,28.67
2019-06-26T05:59:26.279Z,28.69
2019-06-26T06:00:26.279Z,28.45
2019-06-26T06:01:26.280Z,28.23
2019-06-26T06:02:26.277Z,28.40
2019-06-26T06:03:26.273Z,28.65
2019-06-26T06:04:26.267Z,28.82
2019-06-26T06:05:26.265Z,28.67
2019-06-26T06:06:40.601Z,28.69
2019-06-26T06:07:26.260Z,28.82
2019-06-26T06:08:26.258Z,28.78
2019-06-26T06:09:26.261Z,28.66
2019-06-26T06:10:26.327Z,28.63
2019-06-26T06:11:26.306Z,28.59
2019-06-26T06:12:26.254Z,28.72
2019-06-26T06:13:26.250Z,28.84
2019-06-26T06:14:26.248Z,29.08
2019-06-26T06:15:26.259Z,29.20
2019-06-26T06:16:26.245Z,29.13
2019-06-26T06:17:26.247Z,29.05
2019-06-26T06:18:26.250Z,29.19
2019-06-26T06:19:26.240Z,29.22
2019-06-26T06:20:26.241Z,29.29
2019-06-26T06:21:26.245Z,29.37
2019-06-26T06:22:27.550Z,29.30
2019-06-26T06:23:26.264Z,29.29
2019-06-26T06:24:26.235Z,29.30
2019-06-26T06:25:26.310Z,29.45
2019-06-26T06:26:26.247Z,29.37
2019-06-26T06:27:26.271Z,29.32
2019-06-26T06:28:26.227Z,29.52
2019-06-26T06:29:26.529Z,29.79
2019-06-26T06:30:26.313Z,29.87
2019-06-26T06:31:26.342Z,29.99
2019-06-26T06:32:26.264Z,30.01
2019-06-26T06:33:26.262Z,30.01
2019-06-26T06:34:26.334Z,30.09
2019-06-26T06:35:26.243Z,30.15
2019-06-26T06:36:26.296Z,30.16
2019-06-26T06:37:26.229Z,30.12
2019-06-26T06:38:26.248Z,30.26
2019-06-26T06:39:26.303Z,30.18
2019-06-26T06:40:26.216Z,30.40
2019-06-26T06:41:26.218Z,30.49
2019-06-26T06:42:26.240Z,30.34
2019-06-26T06:43:26.221Z,30.40
2019-06-26T06:44:26.240Z,30.57
2019-06-26T06:45:26.225Z,30.44
2019-06-26T06:46:26.276Z,30.59
2019-06-26T06:47:26.218Z,30.56
2019-06-26T06:48:26.225Z,30.53
2019-06-26T06:49:26.249Z,30.37
2019-06-26T06:50:26.228Z,30.50
2019-06-26T06:51:26.213Z,30.69
2019-06-26T06:52:26.215Z,30.81
2019-06-26T06:53:26.210Z,31.06
2019-06-26T06:54:26.258Z,31.27
2019-06-26T06:55:26.209Z,31.20
2019-06-26T06:56:26.211Z,31.36
2019-06-26T06:57:26.226Z,31.45
2019-06-26T06:58:26.212Z,31.57
2019-06-26T06:59:26.314Z,31.74
2019-06-26T07:00:26.214Z,31.68
2019-06-26T07:01:26.223Z,31.47
2019-06-26T07:02:26.206Z,31.62
2019-06-26T07:03:26.206Z,31.84
2019-06-26T07:04:26.202Z,31.71
2019-06-26T07:05:26.214Z,31.76
2019-06-26T07:06:26.210Z,31.95
2019-06-26T07:07:26.263Z,31.97
2019-06-26T07:08:26.295Z,32.10
2019-06-26T07:09:26.210Z,32.12
2019-06-26T07:10:26.212Z,32.29
2019-06-26T07:11:26.230Z,32.24
2019-06-26T07:12:26.208Z,32.37
2019-06-26T07:13:26.215Z,32.32
2019-06-26T07:14:26.210Z,32.51
2019-06-26T07:15:26.207Z,32.52
2019-06-26T07:16:26.227Z,32.44
2019-06-26T07:17:26.210Z,32.34
2019-06-26T07:18:26.217Z,32.47
2019-06-26T07:19:26.207Z,32.77
2019-06-26T07:20:26.257Z,33.03
2019-06-26T07:21:26.216Z,33.11
2019-06-26T07:22:26.213Z,33.27
2019-06-26T07:23:26.260Z,32.86
2019-06-26T07:24:26.214Z,32.59
2019-06-26T07:25:26.212Z,32.81
2019-06-26T07:26:26.223Z,32.92
2019-06-26T07:27:26.221Z,32.83
2019-06-26T07:28:26.245Z,33.11
2019-06-26T07:29:26.221Z,33.38
2019-06-26T07:30:26.215Z,33.50
2019-06-26T07:31:26.216Z,33.50
2019-06-26T07:32:26.219Z,33.60
2019-06-26T07:33:26.237Z,33.48
2019-06-26T07:34:26.228Z,33.55
2019-06-26T07:35:26.224Z,33.55
2019-06-26T07:36:26.456Z,33.68
2019-06-26T07:37:26.227Z,33.65
2019-06-26T07:38:26.254Z,33.68
2019-06-26T07:39:26.226Z,33.86
2019-06-26T07:40:26.237Z,33.71
2019-06-26T07:41:26.227Z,33.61
2019-06-26T07:42:26.230Z,34.01
2019-06-26T07:43:26.231Z,34.21
2019-06-26T07:44:26.232Z,33.99
2019-06-26T07:45:26.244Z,33.70
2019-06-26T07:46:26.237Z,33.58
2019-06-26T07:47:41.786Z,33.64
2019-06-26T07:48:26.243Z,33.72
2019-06-26T07:49:26.279Z,33.98
2019-06-26T07:50:26.296Z,33.99
2019-06-26T07:51:26.257Z,34.01
2019-06-26T07:52:26.269Z,33.77
2019-06-26T07:53:26.246Z,33.93
2019-06-26T07:54:26.272Z,34.02
2019-06-26T07:55:26.251Z,33.99
2019-06-26T07:56:26.244Z,33.98
2019-06-26T07:57:26.332Z,33.76
2019-06-26T07:58:26.250Z,33.72
2019-06-26T07:59:26.269Z,33.85
2019-06-26T08:00:26.252Z,34.11
2019-06-26T08:01:26.245Z,34.26
2019-06-26T08:02:26.244Z,34.51
2019-06-26T08:03:26.245Z,34.53
2019-06-26T08:04:26.252Z,34.56
2019-06-26T08:05:26.254Z,34.74
2019-06-26T08:06:26.249Z,34.74
2019-06-26T08:07:26.255Z,34.56
2019-06-26T08:08:26.261Z,34.01
2019-06-26T08:09:26.277Z,34.17
2019-06-26T08:10:26.270Z,34.73
2019-06-26T08:11:26.267Z,34.61
2019-06-26T08:12:26.255Z,34.71
2019-06-26T08:13:26.301Z,35.11
2019-06-26T08:14:26.337Z,35.01
2019-06-26T08:15:26.273Z,35.01
2019-06-26T08:16:26.264Z,34.93
2019-06-26T08:17:26.271Z,34.99
2019-06-26T08:18:26.307Z,34.93
2019-06-26T08:19:26.273Z,35.07
2019-06-26T08:20:26.261Z,34.92
2019-06-26T08:21:26.261Z,35.03
2019-06-26T08:22:26.264Z,35.05
2019-06-26T08:23:26.294Z,34.96
2019-06-26T08:24:26.274Z,35.17
2019-06-26T08:25:26.276Z,35.20
2019-06-26T08:26:26.273Z,35.30
2019-06-26T08:27:26.265Z,35.36
2019-06-26T08:28:26.334Z,35.35
2019-06-26T08:29:26.269Z,35.13
2019-06-26T08:30:26.288Z,35.45
2019-06-26T08:31:26.269Z,35.25
2019-06-26T08:32:26.278Z,35.36
2019-06-26T08:33:26.352Z,35.45
2019-06-26T08:34:26.279Z,35.52
2019-06-26T08:35:26.493Z,35.76
2019-06-26T08:36:26.275Z,35.81
2019-06-26T08:37:26.273Z,36.07
2019-06-26T08:38:26.274Z,35.96
2019-06-26T08:39:26.335Z,36.11
2019-06-26T08:40:26.278Z,36.12
2019-06-26T08:41:26.278Z,36.01
2019-06-26T08:42:26.287Z,35.88
2019-06-26T08:43:26.291Z,35.93
2019-06-26T08:44:26.297Z,35.77
2019-06-26T08:45:26.292Z,35.74
2019-06-26T08:46:26.293Z,35.63
2019-06-26T08:47:26.314Z,35.55
2019-06-26T08:48:38.918Z,35.76
2019-06-26T08:49:26.726Z,35.84
2019-06-26T08:50:26.364Z,36.00
2019-06-26T08:51:26.305Z,36.08
2019-06-26T08:52:26.292Z,35.98
2019-06-26T08:53:26.298Z,35.84
2019-06-26T08:54:26.296Z,35.66
2019-06-26T08:55:26.338Z,35.54
2019-06-26T08:56:26.304Z,35.40
2019-06-26T08:57:26.293Z,35.36
2019-06-26T08:58:26.306Z,35.55
2019-06-26T08:59:26.323Z,35.81
2019-06-26T09:00:26.298Z,35.79
2019-06-26T09:01:26.366Z,35.66
2019-06-26T09:02:26.343Z,35.45
2019-06-26T09:03:26.293Z,35.70
2019-06-26T09:04:26.295Z,35.95
2019-06-26T09:05:26.293Z,35.81
2019-06-26T09:06:26.297Z,35.62
2019-06-26T09:07:26.305Z,35.69
2019-06-26T09:08:26.457Z,35.64
2019-06-26T09:09:26.322Z,35.52
2019-06-26T09:10:26.299Z,35.58
2019-06-26T09:11:26.295Z,35.70
2019-06-26T09:12:26.317Z,35.69
2019-06-26T09:13:26.311Z,35.82
2019-06-26T09:14:26.298Z,35.92
2019-06-26T09:15:26.301Z,36.11
2019-06-26T09:16:26.308Z,36.33
2019-06-26T09:17:26.310Z,36.34
2019-06-26T09:18:35.486Z,36.29
2019-06-26T09:19:26.341Z,35.88
2019-06-26T09:20:26.355Z,35.98
2019-06-26T09:21:26.403Z,36.03
2019-06-26T09:22:26.314Z,35.84
2019-06-26T09:23:26.301Z,35.98
2019-06-26T09:24:26.300Z,36.01
2019-06-26T09:25:26.344Z,36.21
2019-06-26T09:26:26.314Z,36.34
2019-06-26T09:27:26.391Z,36.30
2019-06-26T09:28:26.306Z,36.26
2019-06-26T09:29:26.304Z,36.42
2019-06-26T09:30:26.308Z,36.50
2019-06-26T09:31:26.321Z,36.21
2019-06-26T09:32:26.306Z,36.14
2019-06-26T09:33:26.323Z,35.85
2019-06-26T09:34:26.352Z,35.67
2019-06-26T09:35:26.338Z,35.63
2019-06-26T09:36:26.316Z,35.67
2019-06-26T09:37:26.308Z,35.79
2019-06-26T09:38:26.325Z,35.69
2019-06-26T09:39:26.345Z,35.39
2019-06-26T09:40:26.321Z,35.10
2019-06-26T09:41:26.318Z,35.23
2019-06-26T09:42:26.315Z,35.47
2019-06-26T09:43:26.314Z,35.62
2019-06-26T09:44:26.315Z,35.77
2019-06-26T09:45:26.312Z,35.73
2019-06-26T09:46:26.313Z,35.82
2019-06-26T09:47:26.317Z,36.20
2019-06-26T09:48:26.314Z,36.31
2019-06-26T09:49:26.315Z,36.33
2019-06-26T09:50:26.313Z,36.24
2019-06-26T09:51:26.314Z,36.08
2019-06-26T09:52:26.314Z,35.88
2019-06-26T09:53:26.314Z,35.69
2019-06-26T09:54:26.313Z,35.66
2019-06-26T09:55:26.319Z,35.42
2019-06-26T09:56:26.325Z,35.47
2019-06-26T09:57:26.313Z,35.81
2019-06-26T09:58:26.318Z,35.73
2019-06-26T09:59:26.315Z,35.66
2019-06-26T10:00:26.370Z,35.77
2019-06-26T10:01:26.315Z,35.52
2019-06-26T10:02:26.321Z,35.20
2019-06-26T10:03:26.359Z,35.26
2019-06-26T10:04:26.324Z,35.02
2019-06-26T10:05:26.320Z,34.76
2019-06-26T10:06:26.319Z,34.73
2019-06-26T10:07:26.345Z,34.93
2019-06-26T10:08:26.318Z,35.23
2019-06-26T10:09:26.329Z,35.32
2019-06-26T10:10:26.317Z,35.48
2019-06-26T10:11:26.318Z,35.63
2019-06-26T10:12:26.317Z,35.58
2019-06-26T10:13:26.317Z,35.57
2019-06-26T10:14:41.039Z,35.58
2019-06-26T10:15:26.320Z,35.40
2019-06-26T10:16:26.320Z,35.37
2019-06-26T10:17:26.319Z,35.02
2019-06-26T10:18:26.322Z,35.01
2019-06-26T10:19:26.336Z,34.83
2019-06-26T10:20:26.320Z,34.79
2019-06-26T10:21:26.318Z,34.73
2019-06-26T10:22:26.320Z,34.73
2019-06-26T10:23:26.315Z,34.54
2019-06-26T10:24:26.325Z,34.45
2019-06-26T10:25:26.316Z,34.32
2019-06-26T10:26:26.318Z,34.27
2019-06-26T10:27:26.343Z,34.13
2019-06-26T10:28:26.315Z,34.23
2019-06-26T10:29:26.314Z,34.17
2019-06-26T10:30:26.317Z,34.51
2019-06-26T10:31:26.316Z,34.89
2019-06-26T10:32:26.312Z,35.10
2019-06-26T10:33:26.315Z,35.13
2019-06-26T10:34:26.313Z,34.86
2019-06-26T10:35:26.325Z,34.36
2019-06-26T10:36:26.312Z,34.27
2019-06-26T10:37:26.310Z,34.42
2019-06-26T10:38:26.311Z,34.23
2019-06-26T10:39:26.316Z,34.38
2019-06-26T10:40:26.315Z,34.56
2019-06-26T10:41:26.309Z,34.77
2019-06-26T10:42:26.309Z,34.54
2019-06-26T10:43:26.318Z,34.63
2019-06-26T10:44:26.315Z,34.74
2019-06-26T10:45:26.320Z,34.77
2019-06-26T10:46:26.341Z,35.03
2019-06-26T10:47:26.311Z,34.88
2019-06-26T10:48:26.305Z,35.10
2019-06-26T10:49:27.677Z,35.21
2019-06-26T10:50:26.364Z,35.29
2019-06-26T10:51:26.304Z,35.28
2019-06-26T10:52:26.306Z,35.48
2019-06-26T10:53:26.306Z,35.58
2019-06-26T10:54:26.301Z,35.74
2019-06-26T10:55:26.303Z,35.86
2019-06-26T10:56:28.646Z,35.85
2019-06-26T10:57:26.300Z,36.26
2019-06-26T10:58:26.307Z,36.26
2019-06-26T10:59:26.301Z,36.00
2019-06-26T11:00:26.306Z,36.00
2019-06-26T11:01:26.303Z,36.08
2019-06-26T11:02:26.303Z,36.15
2019-06-26T11:03:26.299Z,36.00
2019-06-26T11:04:26.304Z,35.82
2019-06-26T11:05:26.310Z,35.81
2019-06-26T11:06:26.351Z,35.64
2019-06-26T11:07:26.362Z,35.59
2019-06-26T11:08:26.321Z,35.71
2019-06-26T11:09:26.299Z,35.71
2019-06-26T11:10:26.304Z,35.82
2019-06-26T11:11:26.301Z,35.81
2019-06-26T11:12:26.297Z,35.81
2019-06-26T11:13:26.297Z,36.12
2019-06-26T11:14:26.315Z,36.27
2019-06-26T11:15:26.386Z,36.36
2019-06-26T11:16:26.360Z,36.19
2019-06-26T11:17:26.309Z,36.20
2019-06-26T11:18:26.303Z,36.03
2019-06-26T11:19:39.487Z,36.27
2019-06-26T11:20:26.303Z,36.65
2019-06-26T11:21:26.340Z,36.68
2019-06-26T11:22:26.301Z,36.57
2019-06-26T11:23:26.304Z,36.27
2019-06-26T11:24:26.300Z,36.17
2019-06-26T11:25:26.298Z,36.43
2019-06-26T11:26:26.302Z,36.39
2019-06-26T11:27:26.294Z,36.48
2019-06-26T11:28:26.293Z,36.77
2019-06-26T11:29:26.299Z,36.64
2019-06-26T11:30:26.297Z,36.42
2019-06-26T11:31:26.860Z,36.39
2019-06-26T11:32:26.345Z,36.29
2019-06-26T11:33:26.297Z,36.42
2019-06-26T11:34:26.337Z,36.67
2019-06-26T11:35:26.296Z,36.86
2019-06-26T11:36:26.300Z,37.07
2019-06-26T11:37:26.294Z,37.16
2019-06-26T11:38:26.332Z,37.08
2019-06-26T11:39:26.298Z,36.89
2019-06-26T11:40:26.293Z,36.50
2019-06-26T11:41:26.295Z,36.14
2019-06-26T11:42:26.296Z,36.20
2019-06-26T11:43:26.314Z,36.38
2019-06-26T11:44:26.304Z,36.57
2019-06-26T11:45:26.294Z,36.76
2019-06-26T11:46:26.294Z,36.83
2019-06-26T11:47:26.295Z,36.99
2019-06-26T11:48:26.321Z,36.73
2019-06-26T11:49:26.294Z,36.49
2019-06-26T11:50:26.292Z,36.48
2019-06-26T11:51:26.296Z,36.52
2019-06-26T11:52:26.295Z,36.77
2019-06-26T11:53:26.300Z,36.48
2019-06-26T11:54:26.293Z,36.54
2019-06-26T11:55:26.294Z,36.92
2019-06-26T11:56:26.296Z,36.97
2019-06-26T11:57:26.294Z,36.95
2019-06-26T11:58:26.298Z,36.89
2019-06-26T11:59:26.298Z,36.87
2019-06-26T12:00:26.303Z,36.87
2019-06-26T12:01:26.294Z,36.92
2019-06-26T12:02:26.291Z,37.05
2019-06-26T12:03:26.292Z,36.87
2019-06-26T12:04:26.292Z,36.97
2019-06-26T12:05:26.299Z,36.82
2019-06-26T12:06:26.295Z,36.91
2019-06-26T12:07:26.290Z,36.92
2019-06-26T12:08:26.290Z,36.98
2019-06-26T12:09:26.290Z,37.17
2019-06-26T12:10:26.294Z,37.21
2019-06-26T12:11:26.295Z,37.46
2019-06-26T12:12:26.289Z,37.78
2019-06-26T12:13:26.287Z,37.90
2019-06-26T12:14:26.286Z,38.03
2019-06-26T12:15:26.286Z,38.17
2019-06-26T12:16:26.286Z,38.20
2019-06-26T12:17:26.284Z,38.30
2019-06-26T12:18:26.340Z,38.52
2019-06-26T12:19:26.284Z,38.44
2019-06-26T12:20:26.465Z,38.33
2019-06-26T12:21:26.295Z,38.24
2019-06-26T12:22:26.295Z,37.99
2019-06-26T12:23:26.312Z,38.32
2019-06-26T12:24:26.670Z,38.55
2019-06-26T12:25:26.295Z,38.63
2019-06-26T12:26:26.298Z,38.55
2019-06-26T12:27:26.289Z,38.54
2019-06-26T12:28:26.288Z,38.60
2019-06-26T12:29:26.288Z,38.63
2019-06-26T12:30:26.295Z,39.03
2019-06-26T12:31:26.316Z,39.10
2019-06-26T12:32:26.298Z,39.24
2019-06-26T12:33:26.294Z,39.43
2019-06-26T12:34:26.297Z,39.55
2019-06-26T12:35:26.361Z,39.24
2019-06-26T12:36:26.295Z,39.08
2019-06-26T12:37:37.058Z,39.06
2019-06-26T12:38:26.298Z,39.09
2019-06-26T12:39:26.315Z,39.32
2019-06-26T12:40:26.289Z,39.37
2019-06-26T12:41:26.294Z,39.40
2019-06-26T12:42:26.301Z,39.36
2019-06-26T12:43:26.290Z,39.61
2019-06-26T12:44:26.294Z,39.91
2019-06-26T12:45:26.289Z,39.76
2019-06-26T12:46:26.290Z,39.55
2019-06-26T12:47:26.291Z,39.61
2019-06-26T12:48:26.291Z,39.71
2019-06-26T12:49:26.345Z,39.91
2019-06-26T12:50:35.247Z,39.95
2019-06-26T12:51:26.292Z,39.55
2019-06-26T12:52:26.303Z,39.35